This is the latest recevied weather packets stored in our database for station/object G8PZT. If no packets are shown the sender has not sent any weather packets the latest 10 day(s).
| Time | Temp. | Humidity | Pressure | Rain* | Wind** | Luminosity | Snow |
|---|---|---|---|---|---|---|---|
| 1787651918 | 22.22° C | 23% | - | 0 mm | - | - | - |
| 1787651318 | 21.67° C | 25% | - | 0 mm | - | - | - |
| 1787650802 | 21.11° C | 32% | - | 0 mm | - | - | - |
| 1787650718 | 20.56° C | 32% | - | 0 mm | - | - | - |
| 1787650118 | 21.11° C | 30% | - | 0 mm | - | - | - |
| 1787649602 | 20° C | 35% | - | 0 mm | - | - | - |
| 1787649519 | 20° C | 35% | - | 0 mm | - | - | - |
| 1787648918 | 20° C | 33% | - | 0 mm | - | - | - |
| 1787648402 | 19.44° C | 38% | - | 0 mm | - | - | - |
| 1787648319 | 19.44° C | 38% | - | 0 mm | - | - | - |
| 1787647719 | 18.89° C | 39% | - | 0 mm | - | - | - |
| 1787647203 | 18.89° C | 39% | - | 0 mm | - | - | - |
| 1787647119 | 18.89° C | 40% | - | 0 mm | - | - | - |
| 1787646519 | 19.44° C | 37% | - | 0 mm | - | - | - |
| 1787646003 | 20° C | 38% | - | 0 mm | - | - | - |
| 1787645919 | 20° C | 38% | - | 0 mm | - | - | - |
| 1787645319 | 17.78° C | 47% | - | 0 mm | - | - | - |
| 1787644803 | 17.22° C | 49% | - | 0 mm | - | - | - |
| 1787644719 | 16.67° C | 50% | - | 0 mm | - | - | - |
| 1787644118 | 16.67° C | 51% | - | 0 mm | - | - | - |
| 1787643602 | 16.67° C | 53% | - | 0 mm | - | - | - |
| 1787643518 | 16.67° C | 53% | - | 0 mm | - | - | - |
| 1787642919 | 16.11° C | 55% | - | 0 mm | - | - | - |
| 1787642402 | 16.11° C | 58% | - | 0 mm | - | - | - |
| 1787642318 | 15.56° C | 58% | - | 0 mm | - | - | - |
* Rain latest hour (hover to see other rain measurements)
** Current wind speed in m/s (hover to see current wind gust speed)